Pineridge, California
Current Conditions -  °F | °C
As of 12:24 PM on Sunday 25 Jan 2015 (Local Time) from KFAT Reporting Station
Haze Haze  
Wind Chill: 42°   Ceiling: 500
Heat Index: 42°   Visibility: 1.7mi
Dew Point: 40°   Wind: 0mph
Humidity: 92%   Direction: NA
Pressure: 30.15"   Gusts: NA
Location:  37.084°N, 119.433°W
Report Text: KFAT 252024Z 00000KT 1 3/4SM BR OVC005 06/04 A3015 RMK AO2 TWR VIS 2 T00560044 $
Loading
Personal Weather Stations






























Interactive Weather Map New forecast layout! Learn more

10-Day Weather Forecast

Advertisements
Track Severe Weather on mobile